Time,TemperatureF,DewpointF,PressureIn,WindDirection,WindDirectionDegrees,WindSpeedMPH,WindSpeedGustMPH,Humidity,HourlyPrecipIn,Conditions,Clouds,dailyrainin,SoftwareType,DateUTC
2013-05-07 00:01:00,63.5,60.8,29.85,West,280,0.0,0.0,91,0.12,,---,0.00,VWS V14.01,2013-05-07 04:01:00,
2013-05-07 00:06:00,63.5,60.8,29.85,West,280,0.0,0.0,91,0.12,,---,0.00,VWS V14.01,2013-05-07 04:06:00,
2013-05-07 00:11:00,63.3,60.3,29.85,West,280,0.0,0.0,90,0.12,,---,0.00,VWS V14.01,2013-05-07 04:11:00,
2013-05-07 00:16:00,63.3,60.3,29.85,West,263,0.0,0.0,90,0.12,,---,0.00,VWS V14.01,2013-05-07 04:16:00,
2013-05-07 00:21:00,63.1,60.2,29.85,West,263,0.0,0.0,90,0.12,,---,0.00,VWS V14.01,2013-05-07 04:21:00,
2013-05-07 00:26:00,63.1,60.2,29.85,West,263,0.0,0.0,90,0.08,,---,0.00,VWS V14.01,2013-05-07 04:26:00,
2013-05-07 00:31:00,63.1,60.2,29.85,West,263,0.0,0.0,90,0.04,,---,0.00,VWS V14.01,2013-05-07 04:31:00,
2013-05-07 00:36:00,63.1,60.2,29.85,West,263,0.0,0.0,90,0.00,,---,0.00,VWS V14.01,2013-05-07 04:36:00,
2013-05-07 00:41:00,63.0,60.0,29.85,West,263,0.0,0.0,90,0.00,,---,0.00,VWS V14.01,2013-05-07 04:41:00,
2013-05-07 00:46:00,63.0,60.0,29.85,West,264,0.0,0.0,90,0.00,,---,0.00,VWS V14.01,2013-05-07 04:46:00,
2013-05-07 00:51:00,63.0,60.0,29.85,West,264,0.0,0.0,90,0.00,,---,0.00,VWS V14.01,2013-05-07 04:51:00,
2013-05-07 00:56:00,62.8,59.8,29.85,West,264,0.0,0.0,90,0.00,,---,0.00,VWS V14.01,2013-05-07 04:56:00,
2013-05-07 01:01:00,62.8,59.8,29.85,West,264,0.0,0.0,90,0.00,,---,0.00,VWS V14.01,2013-05-07 05:01:00,
2013-05-07 01:06:00,62.8,59.8,29.85,West,264,0.0,0.0,90,0.00,,---,0.00,VWS V14.01,2013-05-07 05:06:00,
2013-05-07 01:11:00,62.8,59.8,29.85,West,264,0.0,0.0,90,0.00,,---,0.00,VWS V14.01,2013-05-07 05:11:00,
2013-05-07 01:16:00,62.8,59.8,29.85,West,263,0.0,0.0,90,0.00,,---,0.00,VWS V14.01,2013-05-07 05:16:00,
2013-05-07 01:20:00,62.8,59.8,29.85,West,263,0.0,0.0,90,0.00,,---,0.00,VWS V14.01,2013-05-07 05:20:00,
2013-05-07 01:25:00,62.8,59.8,29.83,West,263,0.0,0.0,90,0.00,,---,0.00,VWS V14.01,2013-05-07 05:25:00,
2013-05-07 01:30:00,62.8,59.8,29.83,West,268,0.0,0.0,90,0.00,,---,0.00,VWS V14.01,2013-05-07 05:30:00,
2013-05-07 01:35:00,62.8,59.8,29.83,West,261,0.0,0.0,90,0.00,,---,0.00,VWS V14.01,2013-05-07 05:35:00,
2013-05-07 01:40:00,62.8,59.8,29.83,West,260,0.0,0.0,90,0.00,,---,0.00,VWS V14.01,2013-05-07 05:40:00,
2013-05-07 01:45:00,62.8,59.8,29.83,West,260,0.0,0.0,90,0.00,,---,0.00,VWS V14.01,2013-05-07 05:45:00,
2013-05-07 01:50:00,62.8,59.8,29.83,West,260,0.0,0.0,90,0.00,,---,0.00,VWS V14.01,2013-05-07 05:50:00,
2013-05-07 01:55:00,62.6,59.6,29.83,West,260,0.0,0.0,90,0.00,,---,0.00,VWS V14.01,2013-05-07 05:55:00,
2013-05-07 02:00:00,62.6,59.6,29.83,West,260,0.0,0.0,90,0.00,,---,0.00,VWS V14.01,2013-05-07 06:00:00,
2013-05-07 02:05:00,62.6,59.6,29.83,West,260,0.0,0.0,90,0.00,,---,0.00,VWS V14.01,2013-05-07 06:05:00,
2013-05-07 02:10:00,62.4,59.5,29.83,West,260,0.0,0.0,90,0.00,,---,0.00,VWS V14.01,2013-05-07 06:10:00,
2013-05-07 02:15:00,62.4,59.5,29.83,West,260,0.0,0.0,90,0.00,,---,0.00,VWS V14.01,2013-05-07 06:15:00,
2013-05-07 02:20:00,62.2,59.3,29.83,West,260,0.0,0.0,90,0.00,,---,0.00,VWS V14.01,2013-05-07 06:20:00,
2013-05-07 02:25:00,62.2,59.3,29.83,West,260,0.0,0.0,90,0.00,,---,0.00,VWS V14.01,2013-05-07 06:25:00,
2013-05-07 02:30:00,62.1,59.1,29.83,West,260,0.0,0.0,90,0.00,,---,0.00,VWS V14.01,2013-05-07 06:30:00,
2013-05-07 02:35:00,62.1,59.1,29.83,West,260,0.0,0.0,90,0.00,,---,0.00,VWS V14.01,2013-05-07 06:35:00,
2013-05-07 02:40:00,62.1,59.1,29.83,West,260,0.0,0.0,90,0.00,,---,0.00,VWS V14.01,2013-05-07 06:40:00,
2013-05-07 02:45:00,61.9,58.9,29.83,West,260,0.0,0.0,90,0.00,,---,0.00,VWS V14.01,2013-05-07 06:45:00,
2013-05-07 02:50:00,61.9,58.9,29.83,West,260,0.0,0.0,90,0.00,,---,0.00,VWS V14.01,2013-05-07 06:50:00,
2013-05-07 02:55:00,61.7,58.7,29.83,West,260,0.0,0.0,90,0.00,,---,0.00,VWS V14.01,2013-05-07 06:55:00,
2013-05-07 03:00:00,61.7,58.4,29.83,West,260,0.0,0.0,89,0.00,,---,0.00,VWS V14.01,2013-05-07 07:00:00,
2013-05-07 03:05:00,61.3,58.1,29.83,West,260,0.0,0.0,89,0.00,,---,0.00,VWS V14.01,2013-05-07 07:05:00,
2013-05-07 03:10:00,61.2,57.9,29.83,West,260,0.0,0.0,89,0.00,,---,0.00,VWS V14.01,2013-05-07 07:10:00,
2013-05-07 03:15:00,61.2,57.9,29.83,West,260,0.0,0.0,89,0.00,,---,0.00,VWS V14.01,2013-05-07 07:15:00,
2013-05-07 03:20:00,61.0,57.4,29.83,West,260,0.0,0.0,88,0.00,,---,0.00,VWS V14.01,2013-05-07 07:20:00,
2013-05-07 03:25:00,61.0,57.4,29.83,West,260,0.0,0.0,88,0.00,,---,0.00,VWS V14.01,2013-05-07 07:25:00,
2013-05-07 03:30:00,61.0,57.4,29.83,West,260,0.0,0.0,88,0.00,,---,0.00,VWS V14.01,2013-05-07 07:30:00,
2013-05-07 03:35:00,60.8,57.2,29.83,West,260,0.0,0.0,88,0.00,,---,0.00,VWS V14.01,2013-05-07 07:35:00,
2013-05-07 03:40:00,60.8,57.2,29.80,West,260,0.0,0.0,88,0.00,,---,0.00,VWS V14.01,2013-05-07 07:40:00,
2013-05-07 03:45:00,60.8,57.2,29.80,West,260,0.0,0.0,88,0.00,,---,0.00,VWS V14.01,2013-05-07 07:45:00,
2013-05-07 03:50:00,60.8,57.2,29.80,West,260,0.0,0.0,88,0.00,,---,0.00,VWS V14.01,2013-05-07 07:50:00,
2013-05-07 03:55:00,60.8,57.2,29.80,West,260,0.0,0.0,88,0.00,,---,0.00,VWS V14.01,2013-05-07 07:55:00,
2013-05-07 04:00:00,60.6,57.0,29.80,West,260,0.0,0.0,88,0.00,,---,0.00,VWS V14.01,2013-05-07 08:00:00,
2013-05-07 04:05:00,60.6,57.0,29.80,West,260,0.0,0.0,88,0.00,,---,0.00,VWS V14.01,2013-05-07 08:05:00,
2013-05-07 04:10:00,60.6,57.0,29.83,West,260,0.0,0.0,88,0.00,,---,0.00,VWS V14.01,2013-05-07 08:10:00,
2013-05-07 04:15:00,60.6,57.0,29.83,West,260,0.0,0.0,88,0.00,,---,0.00,VWS V14.01,2013-05-07 08:15:00,
2013-05-07 04:20:00,60.6,57.0,29.83,West,260,0.0,0.0,88,0.00,,---,0.00,VWS V14.01,2013-05-07 08:20:00,
2013-05-07 04:25:00,60.4,56.9,29.83,West,259,0.0,0.0,88,0.00,,---,0.00,VWS V14.01,2013-05-07 08:25:00,
2013-05-07 04:30:00,60.6,57.0,29.83,West,259,0.0,0.0,88,0.00,,---,0.00,VWS V14.01,2013-05-07 08:30:00,
2013-05-07 04:35:00,60.6,57.0,29.83,West,259,0.0,0.0,88,0.00,,---,0.00,VWS V14.01,2013-05-07 08:35:00,
2013-05-07 04:40:00,60.4,56.9,29.83,West,259,0.0,0.0,88,0.00,,---,0.00,VWS V14.01,2013-05-07 08:40:00,
2013-05-07 04:45:00,60.4,56.9,29.83,West,259,0.0,0.0,88,0.00,,---,0.00,VWS V14.01,2013-05-07 08:45:00,
2013-05-07 04:50:00,60.4,56.9,29.83,WSW,258,0.0,0.0,88,0.00,,---,0.00,VWS V14.01,2013-05-07 08:50:00,
2013-05-07 04:55:00,60.4,56.9,29.83,SW,222,0.0,0.0,88,0.00,,---,0.00,VWS V14.01,2013-05-07 08:55:00,
2013-05-07 05:00:00,60.4,56.9,29.83,SSW,204,0.0,0.0,88,0.00,,---,0.00,VWS V14.01,2013-05-07 09:00:00,
2013-05-07 05:05:00,60.3,56.7,29.83,SSW,204,0.0,0.0,88,0.00,,---,0.00,VWS V14.01,2013-05-07 09:05:00,
2013-05-07 05:10:00,60.3,56.7,29.83,SSW,204,0.0,0.0,88,0.00,,---,0.00,VWS V14.01,2013-05-07 09:10:00,
2013-05-07 05:15:00,60.3,56.7,29.83,SSW,204,0.0,0.0,88,0.00,,---,0.00,VWS V14.01,2013-05-07 09:15:00,
2013-05-07 05:20:00,60.1,56.5,29.83,SSW,204,0.0,0.0,88,0.00,,---,0.00,VWS V14.01,2013-05-07 09:20:00,
2013-05-07 05:25:00,60.1,56.5,29.83,SSW,197,0.0,0.0,88,0.00,,---,0.00,VWS V14.01,2013-05-07 09:25:00,
2013-05-07 05:30:00,59.9,56.3,29.83,SSW,197,0.0,0.0,88,0.00,,---,0.00,VWS V14.01,2013-05-07 09:30:00,
2013-05-07 05:35:00,59.9,56.3,29.83,SSW,197,0.0,0.0,88,0.00,,---,0.00,VWS V14.01,2013-05-07 09:35:00,
2013-05-07 05:40:00,59.9,56.3,29.83,SW,230,0.0,0.0,88,0.00,,---,0.00,VWS V14.01,2013-05-07 09:40:00,
2013-05-07 05:45:00,59.7,56.2,29.83,SW,229,0.0,0.0,88,0.00,,---,0.00,VWS V14.01,2013-05-07 09:45:00,
2013-05-07 05:50:00,59.7,56.2,29.83,SW,229,0.0,0.0,88,0.00,,---,0.00,VWS V14.01,2013-05-07 09:50:00,
2013-05-07 05:55:00,59.7,56.2,29.83,SW,229,0.0,0.0,88,0.00,,---,0.00,VWS V14.01,2013-05-07 09:55:00,
2013-05-07 06:00:00,59.7,56.2,29.83,SW,229,0.0,0.0,88,0.00,,---,0.00,VWS V14.01,2013-05-07 10:00:00,
2013-05-07 06:05:00,59.7,56.2,29.83,SW,229,0.0,0.0,88,0.00,,---,0.00,VWS V14.01,2013-05-07 10:05:00,
2013-05-07 06:10:00,59.5,56.0,29.83,SW,229,0.0,0.0,88,0.00,,---,0.00,VWS V14.01,2013-05-07 10:10:00,
2013-05-07 06:15:00,59.7,56.2,29.83,SW,229,0.0,0.0,88,0.00,,---,0.00,VWS V14.01,2013-05-07 10:15:00,
2013-05-07 06:20:00,59.7,56.2,29.83,SW,229,0.0,0.0,88,0.00,,---,0.00,VWS V14.01,2013-05-07 10:20:00,
2013-05-07 06:25:00,59.7,56.2,29.83,SW,229,0.0,0.0,88,0.00,,---,0.00,VWS V14.01,2013-05-07 10:25:00,
2013-05-07 06:30:00,59.7,56.2,29.83,SW,214,0.0,0.0,88,0.00,,---,0.00,VWS V14.01,2013-05-07 10:30:00,
2013-05-07 06:35:00,59.7,56.2,29.83,SW,214,0.0,0.0,88,0.00,,---,0.00,VWS V14.01,2013-05-07 10:35:00,
2013-05-07 06:40:00,59.7,56.2,29.83,SSW,199,0.0,0.0,88,0.00,,---,0.00,VWS V14.01,2013-05-07 10:40:00,
2013-05-07 06:45:00,59.7,56.2,29.83,SSW,201,0.0,0.0,88,0.00,,---,0.00,VWS V14.01,2013-05-07 10:45:00,
2013-05-07 06:50:00,59.7,56.5,29.83,SSW,201,0.0,0.0,89,0.00,,---,0.00,VWS V14.01,2013-05-07 10:50:00,
2013-05-07 06:55:00,59.9,56.7,29.85,SSW,199,0.0,0.0,89,0.00,,---,0.00,VWS V14.01,2013-05-07 10:55:00,
2013-05-07 07:00:00,59.9,56.7,29.85,SSW,199,0.0,0.0,89,0.00,,---,0.00,VWS V14.01,2013-05-07 11:00:00,
2013-05-07 07:05:00,60.1,56.8,29.85,SW,214,0.0,0.0,89,0.00,,---,0.00,VWS V14.01,2013-05-07 11:05:00,
2013-05-07 07:10:00,60.1,56.8,29.85,SSW,206,0.0,0.0,89,0.00,,---,0.00,VWS V14.01,2013-05-07 11:10:00,
2013-05-07 07:15:00,60.3,57.0,29.85,SSW,204,0.0,0.0,89,0.00,,---,0.00,VWS V14.01,2013-05-07 11:15:00,
2013-05-07 07:20:00,60.4,57.5,29.85,SSW,204,0.0,0.0,90,0.00,,---,0.00,VWS V14.01,2013-05-07 11:20:00,
2013-05-07 07:25:00,60.6,57.7,29.85,SSW,204,0.0,0.0,90,0.00,,---,0.00,VWS V14.01,2013-05-07 11:25:00,
2013-05-07 07:30:00,60.8,57.8,29.85,South,188,0.0,0.0,90,0.00,,---,0.00,VWS V14.01,2013-05-07 11:30:00,
2013-05-07 07:35:00,61.0,58.0,29.85,SSW,195,0.0,0.0,90,0.00,,---,0.00,VWS V14.01,2013-05-07 11:35:00,
2013-05-07 07:40:00,61.0,58.0,29.85,SSW,195,0.0,0.0,90,0.00,,---,0.00,VWS V14.01,2013-05-07 11:40:00,
2013-05-07 07:45:00,61.3,58.7,29.85,SE,146,0.0,0.0,91,0.00,,---,0.00,VWS V14.01,2013-05-07 11:45:00,
2013-05-07 07:50:00,61.5,58.9,29.85,SE,146,0.0,0.0,91,0.00,,---,0.00,VWS V14.01,2013-05-07 11:50:00,
2013-05-07 07:55:00,61.7,59.0,29.85,South,190,0.0,0.0,91,0.00,,---,0.00,VWS V14.01,2013-05-07 11:55:00,
2013-05-07 08:00:00,61.9,59.2,29.85,SSW,203,0.0,0.0,91,0.00,,---,0.00,VWS V14.01,2013-05-07 12:00:00,
2013-05-07 08:05:00,61.9,59.5,29.85,SSW,206,0.0,0.0,92,0.00,,---,0.00,VWS V14.01,2013-05-07 12:05:00,
2013-05-07 08:10:00,62.1,59.7,29.85,South,181,0.0,0.0,92,0.00,,---,0.00,VWS V14.01,2013-05-07 12:10:00,
2013-05-07 08:15:00,62.1,59.7,29.85,SW,232,0.0,0.0,92,0.00,,---,0.00,VWS V14.01,2013-05-07 12:15:00,
2013-05-07 08:20:00,62.1,59.7,29.85,WSW,240,0.0,0.0,92,0.00,,---,0.00,VWS V14.01,2013-05-07 12:20:00,
2013-05-07 08:25:00,61.9,59.5,29.85,SW,231,0.0,0.0,92,0.00,,---,0.00,VWS V14.01,2013-05-07 12:25:00,
2013-05-07 08:30:00,62.1,59.7,29.85,SSW,207,0.0,0.0,92,0.00,,---,0.00,VWS V14.01,2013-05-07 12:30:00,
2013-05-07 08:35:00,62.1,59.7,29.85,SSW,208,0.0,0.0,92,0.00,,---,0.00,VWS V14.01,2013-05-07 12:35:00,
2013-05-07 08:40:00,62.1,59.7,29.85,WSW,249,0.0,0.0,92,0.00,,---,0.00,VWS V14.01,2013-05-07 12:40:00,
2013-05-07 08:45:00,62.1,59.7,29.85,WSW,250,0.0,0.0,92,0.00,,---,0.00,VWS V14.01,2013-05-07 12:45:00,
2013-05-07 08:50:00,62.1,59.4,29.85,SW,228,0.0,0.0,91,0.00,,---,0.00,VWS V14.01,2013-05-07 12:50:00,
2013-05-07 08:55:00,62.2,59.6,29.88,SSW,197,0.0,0.0,91,0.00,,---,0.00,VWS V14.01,2013-05-07 12:55:00,
2013-05-07 09:00:00,62.2,59.6,29.88,SSW,192,0.0,0.0,91,0.00,,---,0.00,VWS V14.01,2013-05-07 13:00:00,
2013-05-07 09:05:00,62.2,59.6,29.88,South,180,0.0,0.0,91,0.00,,---,0.00,VWS V14.01,2013-05-07 13:05:00,
2013-05-07 09:10:00,62.2,59.3,29.88,South,172,0.0,0.0,90,0.00,,---,0.00,VWS V14.01,2013-05-07 13:10:00,
2013-05-07 09:15:00,62.4,59.5,29.88,South,173,0.0,0.0,90,0.00,,---,0.00,VWS V14.01,2013-05-07 13:15:00,
2013-05-07 09:20:00,62.4,59.1,29.88,South,189,0.0,0.0,89,0.00,,---,0.00,VWS V14.01,2013-05-07 13:20:00,
2013-05-07 09:25:00,62.6,59.0,29.88,South,189,0.0,0.0,88,0.00,,---,0.00,VWS V14.01,2013-05-07 13:25:00,
2013-05-07 09:30:00,62.6,58.7,29.88,SSE,166,0.0,0.0,87,0.00,,---,0.00,VWS V14.01,2013-05-07 13:30:00,
2013-05-07 09:35:00,63.0,58.7,29.88,SSE,155,0.0,0.0,86,0.00,,---,0.00,VWS V14.01,2013-05-07 13:35:00,
2013-05-07 09:40:00,63.0,58.4,29.88,South,180,0.0,0.0,85,0.00,,---,0.00,VWS V14.01,2013-05-07 13:40:00,
2013-05-07 09:45:00,63.0,58.4,29.88,SSW,204,0.0,0.0,85,0.00,,---,0.00,VWS V14.01,2013-05-07 13:45:00,
2013-05-07 09:50:00,63.1,58.6,29.88,South,190,0.0,0.0,85,0.00,,---,0.00,VWS V14.01,2013-05-07 13:50:00,
2013-05-07 09:55:00,63.1,58.2,29.88,SE,132,0.0,0.0,84,0.00,,---,0.00,VWS V14.01,2013-05-07 13:55:00,
2013-05-07 10:00:00,63.1,58.2,29.88,SE,138,0.0,0.0,84,0.00,,---,0.00,VWS V14.01,2013-05-07 14:00:00,
2013-05-07 10:05:00,63.1,57.9,29.88,South,172,0.0,0.0,83,0.00,,---,0.00,VWS V14.01,2013-05-07 14:05:00,
2013-05-07 10:10:00,63.3,57.7,29.88,SSE,158,0.0,0.0,82,0.00,,---,0.00,VWS V14.01,2013-05-07 14:10:00,
2013-05-07 10:15:00,63.5,57.6,29.88,South,176,0.0,0.0,81,0.00,,---,0.00,VWS V14.01,2013-05-07 14:15:00,
2013-05-07 10:20:00,63.7,57.8,29.88,SSE,154,0.0,0.0,81,0.00,,---,0.00,VWS V14.01,2013-05-07 14:20:00,
2013-05-07 10:25:00,63.7,57.8,29.88,SE,124,0.0,0.0,81,0.00,,---,0.00,VWS V14.01,2013-05-07 14:25:00,
2013-05-07 10:30:00,63.9,57.9,29.88,WSW,245,0.0,0.0,81,0.00,,---,0.00,VWS V14.01,2013-05-07 14:30:00,
2013-05-07 10:35:00,64.0,58.1,29.88,South,169,0.0,0.0,81,0.00,,---,0.00,VWS V14.01,2013-05-07 14:35:00,
2013-05-07 10:40:00,64.2,57.9,29.88,SSW,197,0.0,0.0,80,0.00,,---,0.00,VWS V14.01,2013-05-07 14:40:00,
2013-05-07 10:45:00,64.4,57.8,29.88,SW,217,0.0,0.0,79,0.00,,---,0.00,VWS V14.01,2013-05-07 14:45:00,
2013-05-07 10:50:00,64.6,57.9,29.88,SW,235,7.4,7.4,79,0.00,,---,0.00,VWS V14.01,2013-05-07 14:50:00,
2013-05-07 10:55:00,64.4,57.4,29.88,South,188,0.0,0.0,78,0.00,,---,0.00,VWS V14.01,2013-05-07 14:55:00,
2013-05-07 11:00:00,64.6,57.6,29.88,SW,235,4.7,4.7,78,0.00,,---,0.00,VWS V14.01,2013-05-07 15:00:00,
2013-05-07 11:05:00,64.8,57.8,29.88,SSW,200,0.0,4.9,78,0.00,,---,0.00,VWS V14.01,2013-05-07 15:05:00,
2013-05-07 11:10:00,65.1,58.1,29.88,WSW,256,0.0,0.0,78,0.00,,---,0.00,VWS V14.01,2013-05-07 15:10:00,
2013-05-07 11:15:00,65.1,58.1,29.88,SW,224,0.0,0.0,78,0.00,,---,0.00,VWS V14.01,2013-05-07 15:15:00,
2013-05-07 11:20:00,64.8,57.4,29.88,SSE,150,0.0,0.0,77,0.00,,---,0.00,VWS V14.01,2013-05-07 15:20:00,
2013-05-07 11:25:00,64.6,56.8,29.88,SE,127,0.0,0.0,76,0.00,,---,0.00,VWS V14.01,2013-05-07 15:25:00,
2013-05-07 11:30:00,64.6,56.5,29.88,SE,139,0.0,0.0,75,0.00,,---,0.00,VWS V14.01,2013-05-07 15:30:00,
2013-05-07 11:35:00,64.6,56.5,29.88,SSW,194,0.0,0.0,75,0.00,,---,0.00,VWS V14.01,2013-05-07 15:35:00,
2013-05-07 11:40:00,64.4,56.3,29.88,SSE,153,0.0,0.0,75,0.00,,---,0.00,VWS V14.01,2013-05-07 15:40:00,
2013-05-07 11:45:00,64.4,56.3,29.88,ESE,114,0.0,0.0,75,0.00,,---,0.00,VWS V14.01,2013-05-07 15:45:00,
2013-05-07 11:50:00,64.4,56.3,29.88,SE,133,0.0,0.0,75,0.00,,---,0.00,VWS V14.01,2013-05-07 15:50:00,
2013-05-07 11:55:00,64.6,56.8,29.88,SSW,196,0.0,0.0,76,0.00,,---,0.00,VWS V14.01,2013-05-07 15:55:00,
2013-05-07 12:00:00,64.6,56.5,29.88,SSW,192,0.0,0.0,75,0.00,,---,0.00,VWS V14.01,2013-05-07 16:00:00,
2013-05-07 12:05:00,65.1,57.0,29.88,WSW,246,0.0,0.0,75,0.00,,---,0.00,VWS V14.01,2013-05-07 16:05:00,
2013-05-07 12:10:00,65.7,57.5,29.88,SW,219,0.0,0.0,75,0.00,,---,0.00,VWS V14.01,2013-05-07 16:10:00,
2013-05-07 12:15:00,65.7,57.2,29.88,SSE,165,0.0,0.0,74,0.00,,---,0.00,VWS V14.01,2013-05-07 16:15:00,
2013-05-07 12:20:00,65.5,56.6,29.88,South,180,0.0,0.0,73,0.00,,---,0.00,VWS V14.01,2013-05-07 16:20:00,
2013-05-07 12:25:00,65.5,56.2,29.88,WNW,288,0.0,0.0,72,0.00,,---,0.00,VWS V14.01,2013-05-07 16:25:00,
2013-05-07 12:30:00,65.5,56.2,29.88,South,191,0.0,0.0,72,0.00,,---,0.00,VWS V14.01,2013-05-07 16:30:00,
2013-05-07 12:35:00,66.0,57.1,29.88,SSW,201,0.0,0.0,73,0.00,,---,0.00,VWS V14.01,2013-05-07 16:35:00,
2013-05-07 12:40:00,66.4,57.1,29.88,South,188,0.0,0.0,72,0.00,,---,0.00,VWS V14.01,2013-05-07 16:40:00,
2013-05-07 12:45:00,66.2,56.9,29.88,SSW,206,0.0,0.0,72,0.00,,---,0.00,VWS V14.01,2013-05-07 16:45:00,
2013-05-07 12:50:00,66.2,56.5,29.88,South,177,0.0,0.0,71,0.00,,---,0.00,VWS V14.01,2013-05-07 16:50:00,
2013-05-07 12:55:00,66.4,56.7,29.88,ESE,114,0.0,0.0,71,0.00,,---,0.00,VWS V14.01,2013-05-07 16:55:00,
2013-05-07 13:00:00,66.6,56.9,29.88,SE,141,0.0,0.0,71,0.00,,---,0.00,VWS V14.01,2013-05-07 17:00:00,
2013-05-07 13:05:00,66.6,56.5,29.88,South,183,0.0,2.7,70,0.00,,---,0.00,VWS V14.01,2013-05-07 17:05:00,
2013-05-07 13:10:00,66.7,56.7,29.88,South,175,0.0,4.0,70,0.00,,---,0.00,VWS V14.01,2013-05-07 17:10:00,
2013-05-07 13:15:00,66.6,56.1,29.88,SSW,193,0.0,0.0,69,0.00,,---,0.00,VWS V14.01,2013-05-07 17:15:00,
2013-05-07 13:20:00,66.6,55.7,29.88,SSW,208,3.4,4.9,68,0.00,,---,0.00,VWS V14.01,2013-05-07 17:20:00,
2013-05-07 13:25:00,66.4,55.1,29.88,SSE,154,0.0,0.0,67,0.00,,---,0.00,VWS V14.01,2013-05-07 17:25:00,
2013-05-07 13:30:00,66.4,55.5,29.88,SW,220,0.0,0.0,68,0.00,,---,0.00,VWS V14.01,2013-05-07 17:30:00,
2013-05-07 13:35:00,66.6,56.1,29.88,SE,136,0.0,0.0,69,0.00,,---,0.00,VWS V14.01,2013-05-07 17:35:00,
2013-05-07 13:40:00,66.4,55.5,29.88,SSW,202,0.0,0.0,68,0.00,,---,0.00,VWS V14.01,2013-05-07 17:40:00,
2013-05-07 13:45:00,66.2,54.9,29.88,South,181,0.0,0.0,67,0.00,,---,0.00,VWS V14.01,2013-05-07 17:45:00,
2013-05-07 13:50:00,66.0,55.2,29.88,SW,222,9.4,9.4,68,0.00,,---,0.00,VWS V14.01,2013-05-07 17:50:00,
2013-05-07 13:55:00,65.7,54.8,29.88,SE,141,0.0,3.6,68,0.00,,---,0.00,VWS V14.01,2013-05-07 17:55:00,
2013-05-07 14:00:00,65.3,54.5,29.88,West,259,0.0,0.0,68,0.00,,---,0.00,VWS V14.01,2013-05-07 18:00:00,
2013-05-07 14:05:00,65.1,54.3,29.88,SSW,192,0.0,0.0,68,0.00,,---,0.00,VWS V14.01,2013-05-07 18:05:00,
2013-05-07 14:10:00,64.8,54.0,29.88,SSW,195,0.0,5.4,68,0.00,,---,0.00,VWS V14.01,2013-05-07 18:10:00,
2013-05-07 14:15:00,64.8,54.0,29.88,South,178,0.0,2.7,68,0.00,,---,0.00,VWS V14.01,2013-05-07 18:15:00,
2013-05-07 14:20:00,64.6,53.8,29.88,South,171,3.4,7.2,68,0.00,,---,0.00,VWS V14.01,2013-05-07 18:20:00,
2013-05-07 14:25:00,64.4,54.0,29.91,SSW,211,0.0,0.0,69,0.00,,---,0.00,VWS V14.01,2013-05-07 18:25:00,
2013-05-07 14:30:00,64.2,53.8,29.91,SSW,198,0.0,0.0,69,0.00,,---,0.00,VWS V14.01,2013-05-07 18:30:00,
2013-05-07 14:35:00,64.2,53.5,29.91,SSW,201,0.0,0.0,68,0.00,,---,0.00,VWS V14.01,2013-05-07 18:35:00,
2013-05-07 14:40:00,64.4,53.2,29.85,SW,232,0.0,0.0,67,0.00,,---,0.00,VWS V14.01,2013-05-07 18:40:00,
2013-05-07 14:45:00,64.6,53.4,29.85,SSE,151,7.4,7.4,67,0.00,,---,0.00,VWS V14.01,2013-05-07 18:45:00,
2013-05-07 14:50:00,64.6,53.4,29.85,SW,230,5.4,6.3,67,0.00,,---,0.00,VWS V14.01,2013-05-07 18:50:00,
2013-05-07 14:55:00,64.4,53.2,29.85,SW,226,0.0,0.0,67,0.00,,---,0.00,VWS V14.01,2013-05-07 18:55:00,
2013-05-07 15:00:00,64.4,52.8,29.85,SSW,211,0.0,0.0,66,0.00,,---,0.00,VWS V14.01,2013-05-07 19:00:00,
2013-05-07 15:05:00,64.2,52.6,29.85,South,185,0.0,0.0,66,0.00,,---,0.00,VWS V14.01,2013-05-07 19:05:00,
2013-05-07 15:10:00,64.2,52.6,29.88,SSW,195,0.0,0.0,66,0.00,,---,0.00,VWS V14.01,2013-05-07 19:10:00,
2013-05-07 15:15:00,64.2,52.6,29.88,WSW,243,0.0,0.0,66,0.00,,---,0.00,VWS V14.01,2013-05-07 19:15:00,
2013-05-07 15:20:00,64.4,52.4,29.88,SW,217,0.0,0.0,65,0.00,,---,0.00,VWS V14.01,2013-05-07 19:20:00,
2013-05-07 15:25:00,65.1,53.1,29.85,SSE,155,4.0,4.0,65,0.00,,---,0.00,VWS V14.01,2013-05-07 19:25:00,
2013-05-07 15:30:00,65.8,52.9,29.85,SSW,195,6.0,6.0,63,0.00,,---,0.00,VWS V14.01,2013-05-07 19:30:00,
2013-05-07 15:35:00,65.7,51.9,29.85,NW,316,0.0,0.0,61,0.00,,---,0.00,VWS V14.01,2013-05-07 19:35:00,
2013-05-07 15:40:00,65.3,50.6,29.88,South,178,0.0,0.0,59,0.00,,---,0.00,VWS V14.01,2013-05-07 19:40:00,
2013-05-07 15:45:00,65.5,51.2,29.88,SE,134,0.0,0.0,60,0.00,,---,0.00,VWS V14.01,2013-05-07 19:45:00,
2013-05-07 15:50:00,65.3,50.2,29.88,SE,124,0.0,0.0,58,0.00,,---,0.00,VWS V14.01,2013-05-07 19:50:00,
2013-05-07 15:55:00,65.5,50.3,29.85,South,178,0.0,0.0,58,0.00,,---,0.00,VWS V14.01,2013-05-07 19:55:00,
2013-05-07 16:00:00,65.8,50.7,29.85,WSW,247,0.0,0.0,58,0.00,,---,0.00,VWS V14.01,2013-05-07 20:00:00,
2013-05-07 16:05:00,65.8,50.2,29.85,ESE,107,0.0,0.0,57,0.00,,---,0.00,VWS V14.01,2013-05-07 20:05:00,
2013-05-07 16:10:00,65.8,49.7,29.85,West,273,0.0,0.0,56,0.00,,---,0.00,VWS V14.01,2013-05-07 20:10:00,
2013-05-07 16:15:00,65.8,50.2,29.85,SW,217,0.0,0.0,57,0.00,,---,0.00,VWS V14.01,2013-05-07 20:15:00,
2013-05-07 16:20:00,65.8,50.2,29.85,SSE,168,0.0,0.0,57,0.00,,---,0.00,VWS V14.01,2013-05-07 20:20:00,
2013-05-07 16:25:00,65.7,50.0,29.85,SE,124,0.0,0.0,57,0.00,,---,0.00,VWS V14.01,2013-05-07 20:25:00,
2013-05-07 16:30:00,65.8,51.1,29.85,South,187,0.0,0.0,59,0.00,,---,0.00,VWS V14.01,2013-05-07 20:30:00,
2013-05-07 16:35:00,65.8,51.6,29.85,SE,140,0.0,0.0,60,0.00,,---,0.00,VWS V14.01,2013-05-07 20:35:00,
2013-05-07 16:40:00,65.7,52.3,29.85,SE,146,0.0,0.0,62,0.00,,---,0.00,VWS V14.01,2013-05-07 20:40:00,
2013-05-07 16:45:00,65.7,52.3,29.85,SSE,164,0.0,0.0,62,0.00,,---,0.00,VWS V14.01,2013-05-07 20:45:00,
2013-05-07 16:50:00,65.7,52.7,29.85,SE,142,0.0,0.0,63,0.00,,---,0.00,VWS V14.01,2013-05-07 20:50:00,
2013-05-07 16:55:00,65.8,52.9,29.85,South,189,0.0,0.0,63,0.00,,---,0.00,VWS V14.01,2013-05-07 20:55:00,
2013-05-07 17:00:00,65.8,52.9,29.85,SSE,162,0.0,0.0,63,0.00,,---,0.00,VWS V14.01,2013-05-07 21:00:00,
2013-05-07 17:05:00,65.7,52.7,29.85,SE,144,0.0,0.0,63,0.00,,---,0.00,VWS V14.01,2013-05-07 21:05:00,
2013-05-07 17:10:00,65.5,52.6,29.85,SSE,161,0.0,0.0,63,0.00,,---,0.00,VWS V14.01,2013-05-07 21:10:00,
2013-05-07 17:15:00,65.5,53.0,29.85,SSW,192,0.0,0.0,64,0.00,,---,0.00,VWS V14.01,2013-05-07 21:15:00,
2013-05-07 17:20:00,65.5,53.0,29.85,SE,127,0.0,0.0,64,0.00,,---,0.00,VWS V14.01,2013-05-07 21:20:00,
2013-05-07 17:25:00,65.5,53.0,29.85,SW,233,0.0,0.0,64,0.00,,---,0.00,VWS V14.01,2013-05-07 21:25:00,
2013-05-07 17:30:00,65.5,53.0,29.85,SSE,160,0.0,0.0,64,0.00,,---,0.00,VWS V14.01,2013-05-07 21:30:00,
2013-05-07 17:35:00,65.5,53.0,29.85,SSW,193,0.0,0.0,64,0.00,,---,0.00,VWS V14.01,2013-05-07 21:35:00,
2013-05-07 17:40:00,65.3,52.8,29.85,South,191,0.0,0.0,64,0.00,,---,0.00,VWS V14.01,2013-05-07 21:40:00,
2013-05-07 17:45:00,65.1,52.7,29.85,SSW,194,0.0,0.0,64,0.00,,---,0.00,VWS V14.01,2013-05-07 21:45:00,
2013-05-07 17:50:00,65.1,53.1,29.85,South,176,0.0,0.0,65,0.00,,---,0.00,VWS V14.01,2013-05-07 21:50:00,
2013-05-07 17:55:00,65.3,53.2,29.85,SSW,204,0.0,0.0,65,0.00,,---,0.00,VWS V14.01,2013-05-07 21:55:00,
2013-05-07 18:00:00,65.1,53.1,29.85,SSW,212,0.0,0.0,65,0.00,,---,0.00,VWS V14.01,2013-05-07 22:00:00,
2013-05-07 18:05:00,65.1,53.1,29.85,SW,224,0.0,0.0,65,0.00,,---,0.00,VWS V14.01,2013-05-07 22:05:00,
2013-05-07 18:10:00,64.9,52.9,29.85,SSW,195,0.0,0.0,65,0.00,,---,0.00,VWS V14.01,2013-05-07 22:10:00,
2013-05-07 18:15:00,64.9,52.9,29.85,SW,230,0.0,0.0,65,0.00,,---,0.00,VWS V14.01,2013-05-07 22:15:00,
2013-05-07 18:20:00,64.8,53.2,29.85,SSW,212,0.0,0.0,66,0.00,,---,0.00,VWS V14.01,2013-05-07 22:20:00,
2013-05-07 18:25:00,64.6,53.0,29.85,SE,140,0.0,0.0,66,0.00,,---,0.00,VWS V14.01,2013-05-07 22:25:00,
2013-05-07 18:30:00,64.4,53.2,29.85,SW,226,0.0,0.0,67,0.00,,---,0.00,VWS V14.01,2013-05-07 22:30:00,
2013-05-07 18:35:00,64.4,53.2,29.85,SE,141,0.0,0.0,67,0.00,,---,0.00,VWS V14.01,2013-05-07 22:35:00,
2013-05-07 18:39:00,64.4,53.2,29.85,SW,228,0.0,0.0,67,0.00,,---,0.00,VWS V14.01,2013-05-07 22:39:00,
2013-05-07 18:44:00,64.4,53.6,29.85,SSW,198,0.0,0.0,68,0.00,,---,0.00,VWS V14.01,2013-05-07 22:44:00,
2013-05-07 18:49:00,64.4,53.6,29.85,SW,221,0.0,0.0,68,0.00,,---,0.00,VWS V14.01,2013-05-07 22:49:00,
2013-05-07 18:54:00,64.2,53.5,29.85,SSW,213,0.0,0.0,68,0.00,,---,0.00,VWS V14.01,2013-05-07 22:54:00,
2013-05-07 18:59:00,64.2,53.5,29.85,West,260,0.0,0.0,68,0.00,,---,0.00,VWS V14.01,2013-05-07 22:59:00,
2013-05-07 19:04:00,64.2,53.5,29.85,South,173,0.0,2.2,68,0.00,,---,0.00,VWS V14.01,2013-05-07 23:04:00,
2013-05-07 19:09:00,64.2,53.5,29.85,SSW,204,8.1,8.1,68,0.00,,---,0.00,VWS V14.01,2013-05-07 23:09:00,
2013-05-07 19:14:00,64.0,53.3,29.85,SSW,213,0.0,0.0,68,0.00,,---,0.00,VWS V14.01,2013-05-07 23:14:00,
2013-05-07 19:19:00,64.0,53.3,29.85,SSE,168,0.0,3.6,68,0.00,,---,0.00,VWS V14.01,2013-05-07 23:19:00,
2013-05-07 19:24:00,64.0,53.3,29.85,SSW,209,0.0,4.9,68,0.00,,---,0.00,VWS V14.01,2013-05-07 23:24:00,
2013-05-07 19:29:00,64.0,53.3,29.85,SSW,196,4.0,4.0,68,0.00,,---,0.00,VWS V14.01,2013-05-07 23:29:00,
2013-05-07 19:34:00,64.0,53.3,29.85,SW,230,0.0,4.0,68,0.00,,---,0.00,VWS V14.01,2013-05-07 23:34:00,
2013-05-07 19:39:00,64.0,53.3,29.88,SSW,209,0.0,3.1,68,0.00,,---,0.00,VWS V14.01,2013-05-07 23:39:00,
2013-05-07 19:44:00,64.0,52.9,29.88,SSE,163,0.0,0.0,67,0.00,,---,0.00,VWS V14.01,2013-05-07 23:44:00,
2013-05-07 19:49:00,63.9,52.7,29.88,SW,230,0.0,2.2,67,0.00,,---,0.00,VWS V14.01,2013-05-07 23:49:00,
2013-05-07 19:54:00,63.9,52.7,29.88,SW,235,4.0,4.0,67,0.00,,---,0.00,VWS V14.01,2013-05-07 23:54:00,
2013-05-07 19:59:00,63.7,52.1,29.88,SW,235,5.4,5.4,66,0.00,,---,0.00,VWS V14.01,2013-05-07 23:59:00,
2013-05-07 20:04:00,63.7,51.7,29.88,SW,222,0.0,4.5,65,0.00,,---,0.00,VWS V14.01,2013-05-08 00:04:00,
2013-05-07 20:09:00,63.7,51.7,29.88,WSW,249,0.0,0.0,65,0.00,,---,0.00,VWS V14.01,2013-05-08 00:09:00,
2013-05-07 20:14:00,63.7,52.1,29.88,South,190,0.0,0.0,66,0.00,,---,0.00,VWS V14.01,2013-05-08 00:14:00,
2013-05-07 20:19:00,63.5,52.0,29.88,WSW,249,0.0,0.0,66,0.00,,---,0.00,VWS V14.01,2013-05-08 00:19:00,
2013-05-07 20:24:00,63.7,51.7,29.88,SW,236,0.0,0.0,65,0.00,,---,0.00,VWS V14.01,2013-05-08 00:24:00,
2013-05-07 20:29:00,63.5,51.5,29.88,WSW,243,0.0,0.0,65,0.00,,---,0.00,VWS V14.01,2013-05-08 00:29:00,
2013-05-07 20:34:00,63.5,51.5,29.88,SSW,204,0.0,0.0,65,0.00,,---,0.00,VWS V14.01,2013-05-08 00:34:00,
2013-05-07 20:39:00,63.5,51.5,29.88,SW,230,0.0,0.0,65,0.00,,---,0.00,VWS V14.01,2013-05-08 00:39:00,
2013-05-07 20:44:00,63.5,51.1,29.88,West,268,0.0,0.0,64,0.00,,---,0.00,VWS V14.01,2013-05-08 00:44:00,
2013-05-07 20:49:00,63.5,51.1,29.88,West,265,0.0,0.0,64,0.00,,---,0.00,VWS V14.01,2013-05-08 00:49:00,
2013-05-07 20:54:00,63.3,51.0,29.88,South,191,0.0,0.0,64,0.00,,---,0.00,VWS V14.01,2013-05-08 00:54:00,
2013-05-07 20:59:00,63.3,51.0,29.88,SSW,195,0.0,0.0,64,0.00,,---,0.00,VWS V14.01,2013-05-08 00:59:00,
2013-05-07 21:04:00,63.3,51.0,29.88,SW,234,0.0,0.0,64,0.00,,---,0.00,VWS V14.01,2013-05-08 01:04:00,
2013-05-07 21:09:00,63.3,51.0,29.88,SE,146,0.0,0.0,64,0.00,,---,0.00,VWS V14.01,2013-05-08 01:09:00,
2013-05-07 21:14:00,63.3,51.4,29.88,West,262,0.0,0.0,65,0.00,,---,0.00,VWS V14.01,2013-05-08 01:14:00,
2013-05-07 21:19:00,63.3,51.4,29.88,SSE,165,0.0,0.0,65,0.00,,---,0.00,VWS V14.01,2013-05-08 01:19:00,
2013-05-07 21:24:00,63.3,51.4,29.88,West,271,0.0,0.0,65,0.00,,---,0.00,VWS V14.01,2013-05-08 01:24:00,
2013-05-07 21:29:00,63.3,51.8,29.88,SSW,199,0.0,0.0,66,0.00,,---,0.00,VWS V14.01,2013-05-08 01:29:00,
2013-05-07 21:34:00,63.1,51.6,29.88,WSW,249,0.0,0.0,66,0.00,,---,0.00,VWS V14.01,2013-05-08 01:34:00,
2013-05-07 21:39:00,63.1,51.6,29.91,West,266,0.0,0.0,66,0.00,,---,0.00,VWS V14.01,2013-05-08 01:39:00,
2013-05-07 21:44:00,63.1,52.0,29.91,SW,224,0.0,0.0,67,0.00,,---,0.00,VWS V14.01,2013-05-08 01:44:00,
2013-05-07 21:49:00,63.1,52.0,29.91,SW,221,0.0,0.0,67,0.00,,---,0.00,VWS V14.01,2013-05-08 01:49:00,
2013-05-07 21:54:00,63.1,52.4,29.91,SW,218,0.0,0.0,68,0.00,,---,0.00,VWS V14.01,2013-05-08 01:54:00,
2013-05-07 21:59:00,63.1,52.4,29.91,SSW,208,0.0,0.0,68,0.00,,---,0.00,VWS V14.01,2013-05-08 01:59:00,
2013-05-07 22:04:00,63.1,52.4,29.91,SSW,208,0.0,0.0,68,0.00,,---,0.00,VWS V14.01,2013-05-08 02:04:00,
2013-05-07 22:09:00,63.1,52.4,29.91,WSW,238,0.0,0.0,68,0.00,,---,0.00,VWS V14.01,2013-05-08 02:09:00,
2013-05-07 22:14:00,63.1,52.4,29.91,SW,220,0.0,0.0,68,0.00,,---,0.00,VWS V14.01,2013-05-08 02:14:00,
2013-05-07 22:19:00,63.1,52.4,29.91,SSW,193,0.0,0.0,68,0.00,,---,0.00,VWS V14.01,2013-05-08 02:19:00,
2013-05-07 22:24:00,63.1,52.4,29.91,SSW,201,0.0,0.0,68,0.00,,---,0.00,VWS V14.01,2013-05-08 02:24:00,
2013-05-07 22:29:00,63.1,52.8,29.91,SSW,196,0.0,0.0,69,0.00,,---,0.00,VWS V14.01,2013-05-08 02:29:00,
2013-05-07 22:34:00,63.1,52.8,29.91,SW,220,0.0,0.0,69,0.00,,---,0.00,VWS V14.01,2013-05-08 02:34:00,
2013-05-07 22:39:00,63.1,52.8,29.91,SW,223,0.0,0.0,69,0.00,,---,0.00,VWS V14.01,2013-05-08 02:39:00,
2013-05-07 22:44:00,63.1,53.2,29.91,SSW,206,0.0,0.0,70,0.00,,---,0.00,VWS V14.01,2013-05-08 02:44:00,
2013-05-07 22:49:00,63.1,53.2,29.91,SSW,193,0.0,0.0,70,0.00,,---,0.00,VWS V14.01,2013-05-08 02:49:00,
2013-05-07 22:54:00,63.1,53.2,29.91,SSW,200,0.0,0.0,70,0.00,,---,0.00,VWS V14.01,2013-05-08 02:54:00,
2013-05-07 22:59:00,63.1,53.2,29.91,West,263,0.0,0.0,70,0.00,,---,0.00,VWS V14.01,2013-05-08 02:59:00,
2013-05-07 23:04:00,63.1,53.6,29.91,WSW,243,0.0,0.0,71,0.00,,---,0.00,VWS V14.01,2013-05-08 03:04:00,
2013-05-07 23:09:00,63.0,53.4,29.91,SW,216,0.0,0.0,71,0.00,,---,0.00,VWS V14.01,2013-05-08 03:09:00,
2013-05-07 23:14:00,63.0,53.8,29.91,SW,218,0.0,0.0,72,0.00,,---,0.00,VWS V14.01,2013-05-08 03:14:00,
2013-05-07 23:19:00,63.0,53.4,29.91,SSW,206,0.0,0.0,71,0.00,,---,0.00,VWS V14.01,2013-05-08 03:19:00,
2013-05-07 23:24:00,63.0,53.4,29.91,SW,233,0.0,0.0,71,0.00,,---,0.00,VWS V14.01,2013-05-08 03:24:00,
2013-05-07 23:29:00,63.0,53.4,29.91,SW,222,0.0,0.0,71,0.00,,---,0.00,VWS V14.01,2013-05-08 03:29:00,
2013-05-07 23:34:00,63.0,53.4,29.91,SSW,200,0.0,0.0,71,0.00,,---,0.00,VWS V14.01,2013-05-08 03:34:00,
2013-05-07 23:39:00,63.0,53.4,29.91,SW,221,0.0,0.0,71,0.00,,---,0.00,VWS V14.01,2013-05-08 03:39:00,
2013-05-07 23:44:00,63.0,53.4,29.91,South,184,0.0,0.0,71,0.00,,---,0.00,VWS V14.01,2013-05-08 03:44:00,
2013-05-07 23:49:00,63.0,53.4,29.91,WNW,282,0.0,0.0,71,0.00,,---,0.00,VWS V14.01,2013-05-08 03:49:00,
2013-05-07 23:54:00,63.0,53.8,29.91,West,276,0.0,0.0,72,0.00,,---,0.00,VWS V14.01,2013-05-08 03:54:00,
2013-05-07 23:59:00,63.0,53.8,29.91,SSW,211,0.0,0.0,72,0.00,,---,0.00,VWS V14.01,2013-05-08 03:59:00,